Time;durP1;ratioP1;P1;durP2;ratioP2;P2;SDS_P1;SDS_P2;PMS_P1;PMS_P2;Temp;Humidity;BMP_temperature;BMP_pressure;BME280_temperature;BME280_humidity;BME280_pressure;Samples;Min_cycle;Max_cycle;Signal;HPM_P1;HPM_P2
2022/04/09 00:01:13;;;;;;;;;5.00;4.00;;;;;7.70;62.18;100599.13;5018158;27;45521;-71
2022/04/09 00:03:38;;;;;;;;;7.25;4.25;;;;;7.82;62.46;100633.13;5049297;27;45530;-72
2022/04/09 00:06:05;;;;;;;;;7.50;5.75;;;;;7.84;62.47;100633.16;5097981;27;45462;-71
2022/04/09 00:08:31;;;;;;;;;6.00;3.75;;;;;7.81;62.59;100626.19;5090029;27;45430;-70
2022/04/09 00:10:56;;;;;;;;;5.00;3.50;;;;;7.66;62.62;100597.31;5064001;27;45358;-70
2022/04/09 00:13:23;;;;;;;;;6.25;4.50;;;;;7.71;62.27;100613.91;5010376;27;45312;-71
2022/04/09 00:15:48;;;;;;;;;7.25;5.50;;;;;7.85;62.21;100643.63;4997312;27;45471;-69
2022/04/09 00:18:15;;;;;;;;;5.25;4.00;;;;;7.84;62.33;100654.03;5015458;27;46156;-70
2022/04/09 00:20:42;;;;;;;;;8.50;5.00;;;;;7.44;62.13;100575.34;4994787;27;45369;-71
2022/04/09 00:23:10;;;;;;;;;8.00;6.75;;;;;7.89;62.39;100654.09;4995120;27;45553;-70
2022/04/09 00:25:36;;;;;;;;;4.75;4.75;;;;;7.82;62.59;100651.41;4994992;27;45521;-70
2022/04/09 00:28:02;;;;;;;;;4.50;3.50;;;;;7.86;62.33;100654.94;4994922;27;45814;-70
2022/04/09 00:30:28;;;;;;;;;4.50;4.50;;;;;7.70;62.40;100633.00;4995265;27;45350;-71
2022/04/09 00:32:53;;;;;;;;;6.25;5.00;;;;;7.83;62.52;100660.09;4995649;28;45268;-72
2022/04/09 00:35:19;;;;;;;;;6.75;5.25;;;;;7.70;62.19;100640.81;4977833;27;45488;-68
2022/04/09 00:37:46;;;;;;;;;4.75;4.75;;;;;7.77;62.16;100660.03;4994917;27;45437;-71
2022/04/09 00:40:14;;;;;;;;;5.75;4.50;;;;;7.75;62.15;100649.56;4994984;27;45457;-70
2022/04/09 00:42:41;;;;;;;;;5.25;5.25;;;;;7.75;62.60;100649.56;4995159;28;45353;-71
2022/04/09 00:45:08;;;;;;;;;7.00;4.75;;;;;7.64;62.44;100635.56;4995403;27;45323;-72
2022/04/09 00:47:35;;;;;;;;;7.00;5.00;;;;;7.83;62.63;100668.81;4993598;27;47962;-71
2022/04/09 00:50:01;;;;;;;;;5.00;5.00;;;;;7.84;61.98;100669.69;4995271;27;45726;-70
2022/04/09 00:52:34;;;;;;;;;6.50;5.50;;;;;7.62;62.42;100629.44;4996274;27;45429;-70
2022/04/09 00:55:04;;;;;;;;;5.00;5.00;;;;;7.80;62.03;100670.50;4997185;27;45499;-73
2022/04/09 00:57:34;;;;;;;;;6.25;4.75;;;;;7.60;62.18;100628.53;4997310;27;45437;-69
2022/04/09 01:00:06;;;;;;;;;5.00;5.00;;;;;7.53;62.02;100609.34;4998554;27;45414;-70
2022/04/09 01:02:31;;;;;;;;;8.50;5.00;;;;;7.94;62.19;100676.75;4981618;28;45268;-71
2022/04/09 01:04:59;;;;;;;;;6.00;5.75;;;;;7.73;61.86;100645.19;5000197;27;45422;-70
2022/04/09 01:07:26;;;;;;;;;4.00;4.00;;;;;7.46;62.07;100597.09;4999598;28;45327;-70
2022/04/09 01:09:52;;;;;;;;;6.00;5.75;;;;;7.49;62.14;100601.47;4997185;27;45402;-70
2022/04/09 01:12:17;;;;;;;;;5.25;4.75;;;;;8.06;62.10;100686.44;4997718;27;45382;-70
2022/04/09 01:14:43;;;;;;;;;5.25;5.00;;;;;7.99;62.18;100669.84;4999851;27;45461;-70
2022/04/09 01:17:09;;;;;;;;;4.50;4.25;;;;;7.86;62.05;100647.97;4997444;27;45484;-70
2022/04/09 01:19:38;;;;;;;;;5.25;4.00;;;;;8.12;61.66;100691.75;4998771;27;45504;-70
2022/04/09 01:22:06;;;;;;;;;5.75;4.00;;;;;7.85;61.39;100643.63;4996843;27;45262;-70
2022/04/09 01:24:32;;;;;;;;;3.50;2.25;;;;;8.02;61.44;100674.22;4995851;27;45528;-72
2022/04/09 01:26:58;;;;;;;;;6.25;4.25;;;;;8.07;61.12;100686.47;4979638;27;46919;-69
2022/04/09 01:29:24;;;;;;;;;6.25;5.75;;;;;7.43;60.63;100573.63;4998051;27;45445;-71
2022/04/09 01:31:49;;;;;;;;;6.50;3.50;;;;;8.19;60.55;100695.31;4994614;27;45445;-70
2022/04/09 01:34:16;;;;;;;;;5.00;5.00;;;;;8.17;60.30;100699.63;4994492;27;45444;-69
2022/04/09 01:36:41;;;;;;;;;3.75;2.75;;;;;7.96;60.23;100672.44;4994294;27;46329;-70
2022/04/09 01:39:07;;;;;;;;;4.00;4.00;;;;;7.95;60.24;100664.56;4976557;28;45350;-71
2022/04/09 01:41:32;;;;;;;;;2.75;2.50;;;;;8.02;60.56;100693.38;4994298;27;45523;-68
2022/04/09 01:43:58;;;;;;;;;1.50;1.50;;;;;8.06;60.19;100697.75;4994932;27;45346;-71
2022/04/09 01:46:24;;;;;;;;;3.00;2.00;;;;;8.05;60.62;100714.28;4994192;27;45411;-71
2022/04/09 01:48:50;;;;;;;;;2.00;2.00;;;;;7.44;59.97;100620.50;4994289;27;45442;-69
2022/04/09 01:51:16;;;;;;;;;2.50;2.50;;;;;7.44;60.90;100620.50;4994322;27;46002;-70
2022/04/09 01:53:41;;;;;;;;;2.00;2.00;;;;;7.75;60.43;100693.03;4994374;27;45638;-71
2022/04/09 01:56:07;;;;;;;;;2.00;2.00;;;;;7.77;60.59;100715.66;4994004;27;46327;-71
2022/04/09 01:58:33;;;;;;;;;2.00;2.00;;;;;7.95;60.78;100751.53;4994335;27;45398;-69
2022/04/09 02:00:59;;;;;;;;;2.75;2.75;;;;;7.67;60.92;100710.31;4994664;27;45994;-71
2022/04/09 02:03:26;;;;;;;;;1.00;1.00;;;;;7.95;61.17;100754.16;4994244;27;45323;-72
2022/04/09 02:05:52;;;;;;;;;3.00;2.25;;;;;7.82;61.06;100742.66;4994082;28;46075;-70
2022/04/09 02:08:19;;;;;;;;;2.25;2.25;;;;;7.91;61.04;100754.94;4993930;27;45327;-73
2022/04/09 02:10:45;;;;;;;;;2.25;2.25;;;;;7.91;61.42;100749.75;4976402;28;45326;-70
2022/04/09 02:13:12;;;;;;;;;0.75;0.75;;;;;7.93;61.36;100752.38;4994395;27;45223;-71
2022/04/09 02:15:37;;;;;;;;;3.00;1.25;;;;;7.85;60.89;100740.13;4993991;27;46228;-70
2022/04/09 02:18:03;;;;;;;;;3.25;2.25;;;;;7.94;61.32;100744.56;4993723;27;45270;-70
2022/04/09 02:20:29;;;;;;;;;2.75;1.25;;;;;7.88;61.41;100738.38;4994155;28;45344;-70
2022/04/09 02:22:55;;;;;;;;;2.00;2.00;;;;;8.00;61.47;100746.38;4994166;27;45425;-68
2022/04/09 02:25:21;;;;;;;;;2.50;2.50;;;;;7.98;61.70;100751.56;4997949;27;46076;-69
2022/04/09 02:27:46;;;;;;;;;2.00;2.00;;;;;7.90;61.81;100736.66;4997689;27;45326;-69
2022/04/09 02:30:13;;;;;;;;;3.00;3.00;;;;;8.07;61.54;100762.13;4997429;27;45381;-69
2022/04/09 02:32:49;;;;;;;;;4.50;3.50;;;;;8.04;61.21;100751.66;4996909;27;45425;-71
2022/04/09 02:35:16;;;;;;;;;4.00;4.00;;;;;8.07;61.54;100756.03;4998914;27;46260;-71
2022/04/09 02:37:42;;;;;;;;;4.50;4.50;;;;;8.15;61.30;100762.22;4996556;27;45350;-70
2022/04/09 02:40:08;;;;;;;;;5.75;4.50;;;;;8.13;61.33;100760.44;4997369;27;45490;-72
2022/04/09 02:42:38;;;;;;;;;4.00;4.00;;;;;8.16;61.23;100779.63;4997333;27;45451;-72
2022/04/09 02:45:05;;;;;;;;;4.00;3.00;;;;;8.07;61.30;100764.72;4979149;28;47401;-71
2022/04/09 02:47:31;;;;;;;;;4.25;4.25;;;;;8.10;60.90;100774.31;4997050;27;45464;-72
2022/04/09 02:50:01;;;;;;;;;3.50;3.50;;;;;8.14;61.00;100781.34;4996695;27;45296;-74
2022/04/09 02:52:35;;;;;;;;;4.25;4.00;;;;;8.10;61.39;100778.69;4996439;27;45478;-71
2022/04/09 02:55:02;;;;;;;;;4.50;4.50;;;;;8.13;61.19;100786.53;4996553;27;45404;-72
2022/04/09 02:57:28;;;;;;;;;4.50;4.50;;;;;8.10;61.36;100783.88;4995967;27;45327;-73
2022/04/09 02:59:53;;;;;;;;;6.00;5.50;;;;;7.78;62.02;100738.28;4996309;27;45515;-73
2022/04/09 03:02:19;;;;;;;;;5.00;5.00;;;;;8.03;61.64;100782.94;4978656;28;45358;-71
2022/04/09 03:04:44;;;;;;;;;5.25;5.25;;;;;8.06;61.71;100790.78;4996048;27;45521;-71
2022/04/09 03:07:10;;;;;;;;;3.75;3.75;;;;;7.60;62.07;100720.66;4996186;27;45256;-68
2022/04/09 03:09:37;;;;;;;;;5.00;5.00;;;;;8.05;61.66;100800.34;4996509;27;45537;-70
2022/04/09 03:12:04;;;;;;;;;6.75;6.25;;;;;7.96;61.56;100795.00;4996750;27;45430;-70
2022/04/09 03:14:30;;;;;;;;;6.25;6.25;;;;;8.00;62.27;100833.31;4996411;27;45504;-70
2022/04/09 03:16:56;;;;;;;;;5.50;4.50;;;;;7.65;62.61;100776.31;4996076;27;45307;-69
2022/04/09 03:19:22;;;;;;;;;6.50;6.00;;;;;7.93;62.89;100823.66;4978470;28;45771;-70
2022/04/09 03:21:48;;;;;;;;;4.00;4.00;;;;;7.96;63.31;100839.34;4996123;27;45366;-70
2022/04/09 03:24:14;;;;;;;;;5.00;5.00;;;;;7.91;63.18;100827.97;4995726;27;45740;-68
2022/04/09 03:26:40;;;;;;;;;7.00;5.00;;;;;7.86;63.54;100819.22;4995614;27;45457;-69
2022/04/09 03:29:06;;;;;;;;;5.50;5.50;;;;;7.70;62.86;100796.38;4996146;27;45484;-69
2022/04/09 03:31:32;;;;;;;;;4.75;4.25;;;;;7.44;63.31;100761.22;4996230;27;45456;-70
2022/04/09 03:33:58;;;;;;;;;4.00;3.50;;;;;7.77;62.90;100824.28;4995535;27;46109;-69
2022/04/09 03:36:23;;;;;;;;;4.25;3.25;;;;;7.49;63.27;100789.09;4996104;27;45473;-69
2022/04/09 03:38:53;;;;;;;;;4.50;3.50;;;;;7.63;63.16;100821.47;4995996;27;45418;-68
2022/04/09 03:41:19;;;;;;;;;3.25;3.00;;;;;7.62;63.76;100823.22;4995685;27;45362;-69
2022/04/09 03:43:51;;;;;;;;;2.25;2.25;;;;;7.72;63.32;100846.81;4995327;27;45401;-69
2022/04/09 03:46:17;;;;;;;;;3.00;3.00;;;;;7.54;63.39;100830.00;4995344;27;45558;-70
2022/04/09 03:48:43;;;;;;;;;3.00;3.00;;;;;7.67;63.72;100851.09;4995765;27;45373;-70
2022/04/09 03:51:10;;;;;;;;;4.50;4.00;;;;;7.54;63.58;100831.75;4996051;27;45341;-70
2022/04/09 03:53:37;;;;;;;;;3.75;3.75;;;;;7.71;64.11;100855.47;4996059;27;45869;-69
2022/04/09 03:56:04;;;;;;;;;3.50;3.25;;;;;7.55;63.77;100828.31;4995475;27;45503;-69
2022/04/09 03:58:30;;;;;;;;;3.50;3.00;;;;;7.79;63.17;100874.75;4995597;27;45479;-69
2022/04/09 04:00:56;;;;;;;;;3.00;3.00;;;;;7.53;62.90;100830.00;4995654;27;45338;-69
2022/04/09 04:03:22;;;;;;;;;2.75;2.75;;;;;7.81;63.31;100873.91;4995370;27;46119;-70
2022/04/09 04:05:48;;;;;;;;;3.50;2.75;;;;;7.80;61.75;100866.91;4996128;27;45309;-69
2022/04/09 04:08:14;;;;;;;;;5.00;3.75;;;;;7.58;62.18;100850.06;4995522;27;45488;-68
2022/04/09 04:10:40;;;;;;;;;3.00;2.75;;;;;7.56;62.98;100867.41;4995789;27;45297;-69
2022/04/09 04:13:07;;;;;;;;;2.50;2.50;;;;;7.26;63.79;100820.91;4995602;27;46434;-69
2022/04/09 04:15:33;;;;;;;;;2.75;2.00;;;;;7.59;63.19;100872.69;4995211;27;45248;-70
2022/04/09 04:17:58;;;;;;;;;2.50;2.50;;;;;7.59;63.14;100875.31;4995248;27;45521;-69
2022/04/09 04:20:24;;;;;;;;;2.00;2.00;;;;;7.61;62.83;100876.19;4995374;27;45469;-70
2022/04/09 04:22:53;;;;;;;;;1.25;1.25;;;;;7.58;62.28;100857.03;4994769;27;45438;-69
2022/04/09 04:25:19;;;;;;;;;3.50;2.00;;;;;7.54;62.57;100865.63;4995166;28;45351;-69
2022/04/09 04:27:52;;;;;;;;;4.75;3.75;;;;;7.51;63.36;100869.06;4995153;28;45492;-68
2022/04/09 04:30:18;;;;;;;;;4.25;3.00;;;;;7.51;63.28;100863.00;4995166;27;45405;-69
2022/04/09 04:32:44;;;;;;;;;7.00;6.50;;;;;7.52;62.82;100868.22;4994953;28;45410;-69
2022/04/09 04:35:11;;;;;;;;;5.75;4.75;;;;;7.39;62.75;100861.06;4995370;28;45480;-69
2022/04/09 04:37:42;;;;;;;;;7.00;7.00;;;;;7.22;63.31;100861.63;4977833;28;45487;-69
2022/04/09 04:40:09;;;;;;;;;6.50;6.50;;;;;7.11;63.80;100860.56;4995348;27;45378;-71
2022/04/09 04:42:35;;;;;;;;;7.00;4.00;;;;;6.85;63.93;100823.63;4994672;27;45469;-71
2022/04/09 04:45:02;;;;;;;;;3.50;3.50;;;;;6.99;64.23;100866.41;4994947;27;45528;-69
2022/04/09 04:47:28;;;;;;;;;6.00;4.25;;;;;6.97;63.56;100865.50;4994063;28;45383;-71
2022/04/09 04:49:53;;;;;;;;;6.00;5.00;;;;;6.75;63.82;100842.53;4995258;27;45470;-72
2022/04/09 04:52:19;;;;;;;;;5.00;5.00;;;;;6.90;63.75;100871.44;4994892;27;45394;-73
2022/04/09 04:54:45;;;;;;;;;5.00;5.00;;;;;6.88;63.51;100880.97;4994626;27;45413;-72
2022/04/09 04:57:10;;;;;;;;;8.00;6.00;;;;;6.79;63.95;100868.66;4995182;27;45347;-73
2022/04/09 04:59:36;;;;;;;;;4.50;4.50;;;;;6.83;64.31;100880.00;4995008;27;45522;-69
2022/04/09 05:02:02;;;;;;;;;5.00;5.00;;;;;6.93;64.37;100886.28;4994863;28;45362;-70
2022/04/09 05:04:28;;;;;;;;;6.00;6.00;;;;;6.87;64.31;100873.13;4994334;27;45362;-71
2022/04/09 05:06:53;;;;;;;;;5.00;5.00;;;;;6.92;64.37;100889.72;4994521;27;45334;-69
2022/04/09 05:09:19;;;;;;;;;7.00;6.00;;;;;6.86;64.53;100884.38;4994765;27;45433;-69
2022/04/09 05:11:45;;;;;;;;;5.75;4.00;;;;;6.72;64.43;100864.19;4994093;27;46034;-70
2022/04/09 05:14:11;;;;;;;;;6.50;5.00;;;;;6.74;65.13;100861.63;4994710;27;45913;-69
2022/04/09 05:16:37;;;;;;;;;6.00;6.00;;;;;6.84;64.72;100892.19;4994597;27;45413;-71
2022/04/09 05:19:04;;;;;;;;;4.75;4.75;;;;;6.85;65.10;100900.84;4989061;27;45542;-69
2022/04/09 05:21:30;;;;;;;;;5.25;4.00;;;;;6.82;65.04;100895.59;4975113;28;46112;-70
2022/04/09 05:23:55;;;;;;;;;7.25;7.25;;;;;6.83;65.36;100915.56;4988634;27;46923;-70
2022/04/09 05:26:23;;;;;;;;;6.00;6.00;;;;;6.80;65.03;100901.63;4989529;27;45524;-70
2022/04/09 05:28:54;;;;;;;;;6.75;6.00;;;;;6.80;65.53;100896.44;4977405;28;45698;-70
2022/04/09 05:31:27;;;;;;;;;6.25;6.25;;;;;6.91;64.72;100901.00;4994324;27;46526;-70
2022/04/09 05:33:55;;;;;;;;;8.00;8.00;;;;;6.77;64.78;100872.94;4993825;27;45914;-71
2022/04/09 05:36:21;;;;;;;;;11.25;9.00;;;;;6.96;64.63;100891.53;4994879;27;45374;-69
2022/04/09 05:38:46;;;;;;;;;9.00;9.00;;;;;6.78;64.89;100866.88;4994273;27;45471;-70
2022/04/09 05:41:12;;;;;;;;;11.00;9.33;;;;;6.76;64.81;100875.50;4994242;27;45500;-70
2022/04/09 05:43:39;;;;;;;;;9.25;7.50;;;;;6.48;65.02;100829.88;4981994;27;45424;-68
2022/04/09 05:46:05;;;;;;;;;10.50;9.00;;;;;6.94;65.67;100901.91;4973697;28;45505;-70
2022/04/09 05:48:31;;;;;;;;;14.25;9.50;;;;;6.86;65.40;100886.97;4974044;28;45827;-70
2022/04/09 05:50:56;;;;;;;;;10.25;9.00;;;;;6.88;65.32;100898.31;4989313;27;46031;-70
2022/04/09 05:53:22;;;;;;;;;11.00;10.00;;;;;7.04;65.47;100930.75;4994596;27;45361;-71
2022/04/09 05:55:52;;;;;;;;;8.00;8.00;;;;;6.98;65.38;100915.88;4994207;27;45402;-69
2022/04/09 05:58:18;;;;;;;;;9.00;8.75;;;;;7.11;65.27;100932.63;4979086;27;46114;-72
2022/04/09 06:00:44;;;;;;;;;9.00;9.00;;;;;7.06;65.44;100916.03;4976366;28;46902;-69
2022/04/09 06:03:18;;;;;;;;;11.25;9.75;;;;;7.22;65.43;100934.56;4977475;28;45340;-70
2022/04/09 06:05:44;;;;;;;;;11.50;11.00;;;;;7.22;65.14;100941.53;4960070;28;45421;-69
2022/04/09 06:08:09;;;;;;;;;9.00;9.00;;;;;7.13;65.15;100917.91;4991166;28;45568;-70
2022/04/09 06:10:35;;;;;;;;;9.25;9.00;;;;;7.28;65.32;100946.84;4996134;27;46179;-69
2022/04/09 06:13:00;;;;;;;;;14.25;10.25;;;;;7.29;64.82;100939.91;4996083;27;45557;-69
2022/04/09 06:15:31;;;;;;;;;11.75;9.50;;;;;7.26;64.77;100932.94;4997560;27;45326;-72
2022/04/09 06:18:07;;;;;;;;;12.00;12.00;;;;;7.25;64.69;100935.50;4998148;27;45935;-70
2022/04/09 06:20:32;;;;;;;;;11.25;9.50;;;;;7.19;65.30;100920.63;4980156;28;45564;-70
2022/04/09 06:22:59;;;;;;;;;11.25;11.25;;;;;7.25;65.03;100940.69;4996982;28;45306;-70
2022/04/09 06:25:25;;;;;;;;;10.00;10.00;;;;;7.22;64.51;100941.53;4963947;28;45453;-69
2022/04/09 06:27:51;;;;;;;;;10.50;9.50;;;;;7.21;64.42;100944.97;4979449;27;45489;-70
2022/04/09 06:30:28;;;;;;;;;;;;;;;;;;;;;
2022/04/09 06:32:57;;;;;;;;;11.00;9.75;;;;;7.27;65.26;100965.94;4996769;27;72917;-71
2022/04/09 06:35:25;;;;;;;;;10.00;9.25;;;;;7.33;65.63;100972.97;4998257;27;45740;-70
2022/04/09 06:37:51;;;;;;;;;11.00;10.75;;;;;7.39;65.45;100973.09;4977714;28;45390;-72
2022/04/09 06:40:16;;;;;;;;;9.50;9.00;;;;;7.38;65.38;100971.31;4997317;27;46159;-72
2022/04/09 06:42:42;;;;;;;;;9.00;9.00;;;;;7.43;64.90;100983.63;4997619;27;45282;-71
2022/04/09 06:45:09;;;;;;;;;12.25;12.25;;;;;7.44;65.91;100987.97;4996994;27;45445;-70
2022/04/09 06:47:37;;;;;;;;;10.00;10.00;;;;;7.49;65.63;100985.44;4996389;27;45377;-70
2022/04/09 06:50:11;;;;;;;;;9.25;9.25;;;;;7.48;65.19;100983.69;4996222;27;46574;-71
2022/04/09 06:52:38;;;;;;;;;12.50;10.75;;;;;7.55;64.65;100993.38;4996220;27;45477;-70
2022/04/09 06:55:06;;;;;;;;;8.25;7.25;;;;;7.46;65.74;100984.53;4996037;27;45485;-70
2022/04/09 06:57:32;;;;;;;;;10.00;10.00;;;;;7.59;65.51;100999.53;4996318;27;45517;-71
2022/04/09 06:59:59;;;;;;;;;8.75;8.25;;;;;7.64;65.20;101003.13;4996100;27;45390;-71
2022/04/09 07:02:25;;;;;;;;;10.25;9.00;;;;;7.67;65.78;101003.16;4987040;27;45370;-72
2022/04/09 07:04:51;;;;;;;;;10.75;9.50;;;;;7.64;65.74;100995.28;4982266;27;45489;-72
2022/04/09 07:07:21;;;;;;;;;10.00;9.50;;;;;7.70;65.66;100997.13;4983829;27;45429;-70
2022/04/09 07:09:47;;;;;;;;;11.00;10.50;;;;;7.78;66.04;101011.16;4976359;28;45572;-70
2022/04/09 07:12:14;;;;;;;;;10.25;8.50;;;;;7.58;65.80;100972.59;4958909;28;45857;-73
2022/04/09 07:14:39;;;;;;;;;10.50;9.00;;;;;7.86;65.81;101014.81;4976782;28;45446;-72
2022/04/09 07:17:06;;;;;;;;;8.25;8.25;;;;;7.88;65.77;101015.72;4977209;28;45378;-69
2022/04/09 07:19:31;;;;;;;;;9.75;8.75;;;;;7.82;65.52;101005.16;4975676;28;45371;-72
2022/04/09 07:21:58;;;;;;;;;7.00;6.75;;;;;7.85;65.27;101011.31;4976302;28;45468;-74
2022/04/09 07:24:24;;;;;;;;;11.50;9.00;;;;;7.84;67.92;100993.91;4976968;28;45418;-73
2022/04/09 07:26:50;;;;;;;;;9.00;8.50;;;;;8.02;65.21;101015.91;4982911;27;45575;-72
2022/04/09 07:29:16;;;;;;;;;9.75;8.75;;;;;8.02;65.16;101027.25;4997905;27;45882;-73
2022/04/09 07:31:48;;;;;;;;;6.25;6.25;;;;;8.00;64.82;100999.41;4983085;27;45321;-74
2022/04/09 07:34:14;;;;;;;;;7.75;6.50;;;;;8.00;64.57;101012.44;4984704;28;45419;-72
2022/04/09 07:36:39;;;;;;;;;7.50;6.00;;;;;8.10;64.65;101031.72;5002105;27;45363;-73
2022/04/09 07:39:08;;;;;;;;;7.00;7.00;;;;;8.10;64.29;101031.72;4998893;27;45444;-73
2022/04/09 07:41:34;;;;;;;;;5.00;5.00;;;;;8.08;63.79;101029.94;4998150;27;45596;-73
2022/04/09 07:43:59;;;;;;;;;5.25;5.25;;;;;8.09;63.72;101030.81;4998660;27;45377;-72
2022/04/09 07:46:25;;;;;;;;;6.50;6.00;;;;;8.06;64.16;101022.94;4996416;27;45380;-75
2022/04/09 07:48:51;;;;;;;;;6.00;6.00;;;;;8.03;64.14;101021.19;4996352;27;45337;-69
2022/04/09 07:51:17;;;;;;;;;5.00;5.00;;;;;7.95;63.95;100994.09;4978326;28;45361;-71
2022/04/09 07:53:42;;;;;;;;;9.25;6.25;;;;;8.27;64.37;101051.13;4995918;27;45342;-70
2022/04/09 07:56:08;;;;;;;;;5.50;4.00;;;;;8.29;64.36;101047.69;4995992;27;45591;-72
2022/04/09 07:58:34;;;;;;;;;8.50;5.75;;;;;8.31;64.06;101047.72;4995431;27;45649;-74
2022/04/09 08:01:00;;;;;;;;;5.00;5.00;;;;;8.32;64.37;101046.00;4995556;27;45437;-74
2022/04/09 08:03:26;;;;;;;;;7.25;7.25;;;;;8.36;63.94;101051.28;4977624;28;45488;-71
2022/04/09 08:05:55;;;;;;;;;7.00;5.50;;;;;8.29;63.71;101037.25;4996123;27;45431;-70
2022/04/09 08:08:21;;;;;;;;;9.50;5.75;;;;;8.41;64.15;101052.28;4995532;27;45482;-70
2022/04/09 08:10:46;;;;;;;;;5.50;5.50;;;;;8.42;63.78;101050.53;4994174;27;45289;-72
2022/04/09 08:13:15;;;;;;;;;6.75;6.00;;;;;8.44;64.02;101054.91;4979896;28;45620;-69
2022/04/09 08:15:40;;;;;;;;;7.50;6.75;;;;;8.32;63.51;101032.94;4995515;27;45234;-69
2022/04/09 08:18:07;;;;;;;;;6.00;6.00;;;;;8.50;63.46;101056.78;4995299;27;46216;-70
2022/04/09 08:20:33;;;;;;;;;5.50;5.50;;;;;8.53;63.30;101058.53;4994547;28;45492;-71
2022/04/09 08:23:00;;;;;;;;;6.50;6.50;;;;;8.56;63.23;101054.22;4990558;28;45202;-70
2022/04/09 08:25:26;;;;;;;;;5.50;5.50;;;;;8.60;63.54;101063.88;4978147;27;45454;-71
2022/04/09 08:27:53;;;;;;;;;8.00;7.50;;;;;8.59;63.61;101064.75;4995275;27;45591;-71
2022/04/09 08:30:26;;;;;;;;;8.50;7.50;;;;;8.64;62.92;101080.50;4996085;27;45479;-69
2022/04/09 08:32:52;;;;;;;;;7.75;6.75;;;;;8.56;62.73;101059.44;4998852;27;45341;-69
2022/04/09 08:35:18;;;;;;;;;6.75;6.75;;;;;8.45;62.43;101035.81;5000257;27;45373;-69
2022/04/09 08:37:55;;;;;;;;;6.50;6.50;;;;;8.69;62.38;101076.22;4997161;27;45466;-71
2022/04/09 08:40:22;;;;;;;;;7.25;6.75;;;;;8.65;62.24;101074.41;4997604;27;45512;-71
2022/04/09 08:42:49;;;;;;;;;8.50;4.25;;;;;8.61;61.58;101069.97;4998974;27;45290;-70
2022/04/09 08:45:16;;;;;;;;;11.25;8.50;;;;;8.59;61.69;101064.75;4999753;27;45389;-71
2022/04/09 08:47:43;;;;;;;;;10.50;9.00;;;;;8.81;61.21;101099.03;4999371;27;45935;-70
2022/04/09 08:50:14;;;;;;;;;6.75;6.75;;;;;8.85;61.13;101100.78;4999370;27;45354;-70
2022/04/09 08:52:41;;;;;;;;;6.75;6.75;;;;;8.82;60.52;101091.19;4999366;27;45371;-75
2022/04/09 08:55:08;;;;;;;;;7.50;7.50;;;;;8.78;60.70;101086.78;4999493;27;45489;-72
2022/04/09 08:57:35;;;;;;;;;6.50;6.50;;;;;8.70;60.74;101078.81;4999123;27;46375;-73
2022/04/09 09:00:06;;;;;;;;;5.75;5.75;;;;;8.89;60.74;101110.44;4981346;27;45420;-70
2022/04/09 09:02:35;;;;;;;;;6.25;4.50;;;;;8.97;62.30;101107.94;4997210;27;45497;-71
2022/04/09 09:05:01;;;;;;;;;5.25;5.25;;;;;8.79;60.62;101069.38;4995570;27;45909;-70
2022/04/09 09:07:30;;;;;;;;;6.25;2.75;;;;;8.84;59.86;101076.41;4995439;27;45505;-69
2022/04/09 09:10:16;;;;;;;;;7.00;5.50;;;;;9.03;59.42;101105.44;4995766;27;45333;-69
2022/04/09 09:12:42;;;;;;;;;6.25;5.50;;;;;9.08;59.71;101111.59;4996101;27;45641;-70
2022/04/09 09:15:08;;;;;;;;;3.50;3.50;;;;;9.07;59.34;101102.00;4997072;27;45561;-70
2022/04/09 09:17:34;;;;;;;;;6.50;4.00;;;;;9.03;58.98;101085.41;4996731;27;45414;-70
2022/04/09 09:20:14;;;;;;;;;6.50;5.00;;;;;9.21;59.62;101129.22;4996071;27;45440;-71
2022/04/09 09:22:42;;;;;;;;;5.25;4.75;;;;;9.24;59.36;101125.75;4995599;27;46417;-71
2022/04/09 09:25:12;;;;;;;;;8.00;7.25;;;;;9.22;59.01;101128.34;4996722;27;45493;-70
2022/04/09 09:27:40;;;;;;;;;6.00;4.00;;;;;9.24;59.08;101133.59;4995360;27;46287;-69
2022/04/09 09:30:09;;;;;;;;;5.75;5.00;;;;;9.27;59.40;101138.84;4995288;28;45311;-69
2022/04/09 09:32:35;;;;;;;;;9.25;8.00;;;;;9.10;58.81;101099.44;4995477;27;45235;-72
2022/04/09 09:35:02;;;;;;;;;7.25;7.00;;;;;9.33;59.16;101146.81;4995499;27;45395;-70
2022/04/09 09:37:30;;;;;;;;;8.25;7.00;;;;;9.37;57.83;101145.09;4994896;28;45609;-70
2022/04/09 09:39:56;;;;;;;;;8.25;8.00;;;;;9.35;58.26;101142.47;4997362;27;45335;-73
2022/04/09 09:42:23;;;;;;;;;10.00;8.50;;;;;9.42;58.41;101153.88;4994436;28;45344;-71
2022/04/09 09:44:50;;;;;;;;;5.50;5.50;;;;;9.33;57.92;101138.97;4994864;28;45544;-75
2022/04/09 09:47:17;;;;;;;;;12.00;7.50;;;;;9.48;57.97;101164.41;4994322;28;45932;-76
2022/04/09 09:49:47;;;;;;;;;10.00;6.75;;;;;9.54;57.83;101175.84;4994630;27;45447;-74
2022/04/09 09:52:14;;;;;;;;;16.25;13.25;;;;;9.54;57.46;101172.34;4994414;27;45506;-74
2022/04/09 09:54:59;;;;;;;;;14.75;12.25;;;;;9.59;57.66;101177.66;4977276;27;45495;-75
2022/04/09 09:57:28;;;;;;;;;8.00;8.00;;;;;9.63;60.45;101185.53;4994492;27;46153;-72
2022/04/09 09:59:56;;;;;;;;;7.75;7.75;;;;;9.75;59.48;101174.34;4994106;27;45282;-72
2022/04/09 10:02:24;;;;;;;;;4.00;4.00;;;;;9.88;57.85;101198.94;4994278;27;45445;-71
2022/04/09 10:04:52;;;;;;;;;5.25;5.25;;;;;9.89;56.92;101203.28;4977140;28;45260;-70
2022/04/09 10:07:19;;;;;;;;;10.50;7.25;;;;;9.87;56.83;101203.31;4994148;27;46130;-71
2022/04/09 10:09:46;;;;;;;;;6.25;6.25;;;;;9.87;56.64;101210.25;4994160;27;45426;-71
2022/04/09 10:12:18;;;;;;;;;7.75;7.75;;;;;9.87;56.80;101215.47;4993793;27;45506;-70
2022/04/09 10:14:53;;;;;;;;;9.50;6.25;;;;;9.87;59.57;101219.00;4994096;27;45563;-72
2022/04/09 10:17:20;;;;;;;;;78.67;66.33;;;;;9.93;61.44;101220.81;4993542;27;46140;-73
2022/04/09 10:19:54;;;;;;;;;57.75;47.75;;;;;10.04;57.69;101213.09;4993723;27;45706;-72
2022/04/09 10:22:23;;;;;;;;;39.75;31.50;;;;;10.08;57.12;101217.47;4976034;28;45303;-72
2022/04/09 10:24:50;;;;;;;;;18.00;18.00;;;;;10.08;56.60;101223.59;4976541;27;45496;-69
2022/04/09 10:27:43;;;;;;;;;17.75;14.00;;;;;10.08;56.75;101228.81;4975603;27;46442;-71
2022/04/09 10:30:12;;;;;;;;;14.00;12.00;;;;;10.10;56.83;101226.22;4993680;27;45335;-70
2022/04/09 10:32:45;;;;;;;;;12.25;8.50;;;;;10.10;56.73;101227.09;4993621;27;45391;-71
2022/04/09 10:35:50;;;;;;;;;7.50;7.50;;;;;10.11;56.46;101230.63;4977006;28;45559;-71
2022/04/09 10:38:17;;;;;;;;;9.00;9.00;;;;;10.10;56.80;101242.81;4994282;27;45480;-70
2022/04/09 10:40:42;;;;;;;;;8.00;7.75;;;;;10.08;56.30;101241.91;4993754;27;45444;-71
2022/04/09 10:43:23;;;;;;;;;8.00;5.75;;;;;9.97;56.13;101223.47;4993955;27;45464;-70
2022/04/09 10:48:30;;;;;;;;;10.25;8.25;;;;;9.91;56.47;101243.44;4996618;27;46025;-69
2022/04/09 10:51:04;;;;;;;;;7.50;6.00;;;;;9.75;56.68;101230.19;4996285;27;45465;-69
2022/04/09 10:53:43;;;;;;;;;3.25;1.50;;;;;9.81;56.55;101249.44;4996607;27;45473;-69
2022/04/09 10:56:27;;;;;;;;;7.00;7.00;;;;;9.75;56.73;101258.94;4996510;27;45446;-73
2022/04/09 10:59:16;;;;;;;;;11.50;8.25;;;;;9.73;56.62;101252.81;4978128;28;47228;-74
2022/04/09 11:01:48;;;;;;;;;8.75;8.00;;;;;9.68;56.83;101250.97;4996097;27;45382;-75
2022/04/09 11:04:34;;;;;;;;;8.50;8.50;;;;;9.66;57.19;101255.34;4996419;27;45338;-75
2022/04/09 11:07:09;;;;;;;;;9.75;7.75;;;;;9.66;56.79;101260.56;4996597;27;45469;-73
2022/04/09 11:10:03;;;;;;;;;12.50;8.00;;;;;9.63;56.87;101257.88;4995932;27;46277;-74
2022/04/09 11:12:31;;;;;;;;;10.00;8.50;;;;;9.55;56.84;101252.56;4996416;27;45428;-74
2022/04/09 11:15:02;;;;;;;;;7.00;7.00;;;;;9.62;56.65;101270.09;4996791;27;45290;-73
2022/04/09 11:17:33;;;;;;;;;8.00;8.00;;;;;9.61;56.84;101270.06;4996626;27;45474;-72
2022/04/09 11:20:15;;;;;;;;;9.75;8.00;;;;;9.57;56.32;101276.13;4996499;27;46037;-72
2022/04/09 11:22:52;;;;;;;;;8.50;8.50;;;;;9.31;56.72;101233.03;4978263;28;45513;-71
2022/04/09 11:25:26;;;;;;;;;11.00;11.00;;;;;9.38;56.66;101264.50;4996324;28;45538;-69
2022/04/09 11:28:03;;;;;;;;;10.00;9.00;;;;;9.35;56.95;101275.81;4996474;27;45436;-71
2022/04/09 11:30:29;;;;;;;;;11.75;8.25;;;;;9.45;56.63;101279.44;4996296;27;46247;-69
2022/04/09 11:32:55;;;;;;;;;7.50;7.50;;;;;9.48;56.84;101282.09;4995811;27;45444;-69
2022/04/09 11:35:24;;;;;;;;;4.50;3.75;;;;;9.48;56.03;101282.97;4996160;27;45360;-70
2022/04/09 11:37:51;;;;;;;;;8.00;7.50;;;;;9.58;56.35;101285.72;4996536;28;45234;-69